LFRV/VNE METAR and TAF weather

Enter ICAO airport designator
Station Type Date Time Source
LFRV METAR 2019/04/25 10:00 UTC NOAA

LFRV 251000Z AUTO 23011KT 170V270 9999 BKN022/// BKN028/// BKN040/// ///TCU 11/07 Q0998


Station Type Date Time Source
LFRV Decoded METAR 2019/04/25 10:00 UTC NOAA

Station name not available
Apr 25, 2019 - 06:00 AM EDT / 2019.04.25 1000 UTC
Wind: from the SW (230 degrees) at 13 MPH (11 KT) (direction variable):0
Visibility: greater than 7 mile(s):0
Sky conditions: mostly cloudy
Weather: Towering cumulus clouds observed
Temperature: 51 F (11 C)
Dew Point: 44 F (7 C)
Relative Humidity: 76%
Pressure (altimeter): 29.47 in. Hg (0998 hPa)
ob: LFRV 251000Z AUTO 23011KT 170V270 9999 BKN022/// BKN028/// BKN040/// ///TCU 11/07 Q0998
cycle: 10

Station Type Date Time Source
LFRV TAF UTC NOAA

Error!

Example: see airport list